sensor_id;sensor_type;location;lat;lon;timestamp;P1;durP1;ratioP1;P2;durP2;ratioP2
21589;SDS011;10957;50.968;6.828;2023-02-13T00:02:40;3.30;;;3.10;;
21589;SDS011;10957;50.968;6.828;2023-02-13T00:07:41;2.90;;;2.80;;
21589;SDS011;10957;50.968;6.828;2023-02-13T00:12:42;3.33;;;3.17;;
21589;SDS011;10957;50.968;6.828;2023-02-13T00:17:43;3.28;;;3.17;;
21589;SDS011;10957;50.968;6.828;2023-02-13T00:22:44;3.63;;;3.53;;
21589;SDS011;10957;50.968;6.828;2023-02-13T00:27:45;3.33;;;3.22;;
21589;SDS011;10957;50.968;6.828;2023-02-13T00:32:47;3.47;;;3.28;;
21589;SDS011;10957;50.968;6.828;2023-02-13T00:37:48;3.75;;;3.45;;
21589;SDS011;10957;50.968;6.828;2023-02-13T00:42:49;3.67;;;3.50;;
21589;SDS011;10957;50.968;6.828;2023-02-13T00:47:50;3.75;;;3.55;;
21589;SDS011;10957;50.968;6.828;2023-02-13T00:52:54;2.97;;;2.85;;
21589;SDS011;10957;50.968;6.828;2023-02-13T00:57:55;3.17;;;3.08;;
21589;SDS011;10957;50.968;6.828;2023-02-13T01:02:56;3.17;;;3.05;;
21589;SDS011;10957;50.968;6.828;2023-02-13T01:07:58;3.33;;;3.22;;
21589;SDS011;10957;50.968;6.828;2023-02-13T01:12:59;2.92;;;2.83;;
21589;SDS011;10957;50.968;6.828;2023-02-13T01:18:00;3.50;;;3.30;;
21589;SDS011;10957;50.968;6.828;2023-02-13T01:23:02;3.28;;;3.17;;
21589;SDS011;10957;50.968;6.828;2023-02-13T01:28:04;4.20;;;3.90;;
21589;SDS011;10957;50.968;6.828;2023-02-13T01:33:05;3.92;;;3.72;;
21589;SDS011;10957;50.968;6.828;2023-02-13T01:38:07;3.83;;;3.53;;
21589;SDS011;10957;50.968;6.828;2023-02-13T01:43:08;3.28;;;3.17;;
21589;SDS011;10957;50.968;6.828;2023-02-13T01:48:13;3.00;;;2.90;;
21589;SDS011;10957;50.968;6.828;2023-02-13T01:53:19;3.50;;;3.30;;
21589;SDS011;10957;50.968;6.828;2023-02-13T01:58:31;2.97;;;2.88;;
21589;SDS011;10957;50.968;6.828;2023-02-13T02:03:38;3.40;;;3.30;;
21589;SDS011;10957;50.968;6.828;2023-02-13T02:08:45;3.08;;;2.97;;
21589;SDS011;10957;50.968;6.828;2023-02-13T02:13:53;3.53;;;3.35;;
21589;SDS011;10957;50.968;6.828;2023-02-13T02:19:07;4.30;;;4.10;;
21589;SDS011;10957;50.968;6.828;2023-02-13T02:35:20;3.20;;;3.10;;
21589;SDS011;10957;50.968;6.828;2023-02-13T02:40:31;3.53;;;3.40;;
21589;SDS011;10957;50.968;6.828;2023-02-13T02:45:52;3.17;;;3.05;;
21589;SDS011;10957;50.968;6.828;2023-02-13T02:51:21;3.05;;;2.95;;
21589;SDS011;10957;50.968;6.828;2023-02-13T02:56:30;3.10;;;3.00;;
21589;SDS011;10957;50.968;6.828;2023-02-13T03:01:39;3.10;;;3.00;;
21589;SDS011;10957;50.968;6.828;2023-02-13T03:07:03;3.35;;;3.25;;
21589;SDS011;10957;50.968;6.828;2023-02-13T03:12:07;3.30;;;3.20;;
21589;SDS011;10957;50.968;6.828;2023-02-13T03:17:29;3.38;;;3.28;;
21589;SDS011;10957;50.968;6.828;2023-02-13T03:28:00;3.30;;;3.20;;
21589;SDS011;10957;50.968;6.828;2023-02-13T03:39:05;3.20;;;3.10;;
21589;SDS011;10957;50.968;6.828;2023-02-13T03:49:40;2.72;;;2.63;;
21589;SDS011;10957;50.968;6.828;2023-02-13T03:55:04;3.03;;;2.92;;
21589;SDS011;10957;50.968;6.828;2023-02-13T04:00:35;3.80;;;3.70;;
21589;SDS011;10957;50.968;6.828;2023-02-13T04:05:43;2.92;;;2.83;;
21589;SDS011;10957;50.968;6.828;2023-02-13T04:10:58;2.90;;;2.80;;
21589;SDS011;10957;50.968;6.828;2023-02-13T04:21:11;3.42;;;3.22;;
21589;SDS011;10957;50.968;6.828;2023-02-13T04:26:14;3.00;;;2.90;;
21589;SDS011;10957;50.968;6.828;2023-02-13T04:31:19;3.50;;;3.40;;
21589;SDS011;10957;50.968;6.828;2023-02-13T04:36:20;3.15;;;3.05;;
21589;SDS011;10957;50.968;6.828;2023-02-13T04:41:21;2.85;;;2.75;;
21589;SDS011;10957;50.968;6.828;2023-02-13T04:46:22;4.95;;;4.75;;
21589;SDS011;10957;50.968;6.828;2023-02-13T04:51:23;3.35;;;3.25;;
21589;SDS011;10957;50.968;6.828;2023-02-13T04:56:25;3.38;;;3.25;;
21589;SDS011;10957;50.968;6.828;2023-02-13T05:01:26;2.80;;;2.70;;
21589;SDS011;10957;50.968;6.828;2023-02-13T05:06:27;3.38;;;3.28;;
21589;SDS011;10957;50.968;6.828;2023-02-13T05:11:28;2.95;;;2.85;;
21589;SDS011;10957;50.968;6.828;2023-02-13T05:16:29;3.00;;;2.90;;
21589;SDS011;10957;50.968;6.828;2023-02-13T05:21:30;3.90;;;3.70;;
21589;SDS011;10957;50.968;6.828;2023-02-13T05:26:50;3.20;;;3.10;;
21589;SDS011;10957;50.968;6.828;2023-02-13T05:31:52;4.07;;;3.88;;
21589;SDS011;10957;50.968;6.828;2023-02-13T05:36:55;3.88;;;3.67;;
21589;SDS011;10957;50.968;6.828;2023-02-13T05:41:56;3.70;;;3.60;;
21589;SDS011;10957;50.968;6.828;2023-02-13T05:46:57;3.47;;;3.38;;
21589;SDS011;10957;50.968;6.828;2023-02-13T05:51:59;4.55;;;4.25;;
21589;SDS011;10957;50.968;6.828;2023-02-13T05:57:00;3.67;;;3.55;;
21589;SDS011;10957;50.968;6.828;2023-02-13T06:02:01;4.18;;;3.97;;
21589;SDS011;10957;50.968;6.828;2023-02-13T06:07:02;4.57;;;4.38;;
21589;SDS011;10957;50.968;6.828;2023-02-13T06:12:04;3.70;;;3.60;;
21589;SDS011;10957;50.968;6.828;2023-02-13T06:17:05;3.30;;;3.20;;
21589;SDS011;10957;50.968;6.828;2023-02-13T06:22:10;3.53;;;3.42;;
21589;SDS011;10957;50.968;6.828;2023-02-13T06:27:11;4.65;;;4.45;;
21589;SDS011;10957;50.968;6.828;2023-02-13T06:32:13;4.07;;;3.88;;
21589;SDS011;10957;50.968;6.828;2023-02-13T06:37:14;3.95;;;3.75;;
21589;SDS011;10957;50.968;6.828;2023-02-13T06:42:15;4.05;;;3.85;;
21589;SDS011;10957;50.968;6.828;2023-02-13T06:47:18;3.28;;;3.17;;
21589;SDS011;10957;50.968;6.828;2023-02-13T06:52:19;3.78;;;3.58;;
21589;SDS011;10957;50.968;6.828;2023-02-13T06:57:20;3.47;;;3.30;;
21589;SDS011;10957;50.968;6.828;2023-02-13T07:02:21;3.30;;;3.20;;
21589;SDS011;10957;50.968;6.828;2023-02-13T07:07:23;2.97;;;2.87;;
21589;SDS011;10957;50.968;6.828;2023-02-13T07:12:24;3.83;;;3.63;;
21589;SDS011;10957;50.968;6.828;2023-02-13T07:17:25;4.05;;;3.78;;
21589;SDS011;10957;50.968;6.828;2023-02-13T07:22:26;3.75;;;3.58;;
21589;SDS011;10957;50.968;6.828;2023-02-13T07:27:28;4.03;;;3.72;;
21589;SDS011;10957;50.968;6.828;2023-02-13T07:32:29;3.58;;;3.47;;
21589;SDS011;10957;50.968;6.828;2023-02-13T07:37:31;3.00;;;2.90;;
21589;SDS011;10957;50.968;6.828;2023-02-13T07:42:32;3.42;;;3.28;;
21589;SDS011;10957;50.968;6.828;2023-02-13T07:47:37;3.75;;;3.55;;
21589;SDS011;10957;50.968;6.828;2023-02-13T07:52:38;4.22;;;4.00;;
21589;SDS011;10957;50.968;6.828;2023-02-13T07:57:39;3.92;;;3.72;;
21589;SDS011;10957;50.968;6.828;2023-02-13T08:02:40;3.03;;;2.92;;
21589;SDS011;10957;50.968;6.828;2023-02-13T08:07:41;2.90;;;2.80;;
21589;SDS011;10957;50.968;6.828;2023-02-13T08:12:43;2.60;;;2.50;;
21589;SDS011;10957;50.968;6.828;2023-02-13T08:17:44;3.90;;;3.60;;
21589;SDS011;10957;50.968;6.828;2023-02-13T08:22:46;3.08;;;2.97;;
21589;SDS011;10957;50.968;6.828;2023-02-13T08:27:47;3.08;;;2.97;;
21589;SDS011;10957;50.968;6.828;2023-02-13T08:32:48;3.00;;;2.90;;
21589;SDS011;10957;50.968;6.828;2023-02-13T08:37:49;2.95;;;2.85;;
21589;SDS011;10957;50.968;6.828;2023-02-13T08:42:50;3.17;;;3.08;;
21589;SDS011;10957;50.968;6.828;2023-02-13T08:47:54;3.00;;;2.80;;
21589;SDS011;10957;50.968;6.828;2023-02-13T08:52:57;2.90;;;2.80;;
21589;SDS011;10957;50.968;6.828;2023-02-13T08:58:00;2.70;;;2.60;;
21589;SDS011;10957;50.968;6.828;2023-02-13T09:03:02;3.70;;;3.50;;
21589;SDS011;10957;50.968;6.828;2023-02-13T09:08:04;3.47;;;3.33;;
21589;SDS011;10957;50.968;6.828;2023-02-13T09:13:06;3.00;;;2.90;;
21589;SDS011;10957;50.968;6.828;2023-02-13T09:18:07;3.67;;;3.47;;
21589;SDS011;10957;50.968;6.828;2023-02-13T09:23:09;3.67;;;3.47;;
21589;SDS011;10957;50.968;6.828;2023-02-13T09:28:10;4.13;;;3.83;;
21589;SDS011;10957;50.968;6.828;2023-02-13T09:33:11;3.65;;;3.53;;
21589;SDS011;10957;50.968;6.828;2023-02-13T09:38:12;3.20;;;3.10;;
21589;SDS011;10957;50.968;6.828;2023-02-13T09:43:21;3.63;;;3.53;;
21589;SDS011;10957;50.968;6.828;2023-02-13T09:48:32;4.00;;;3.80;;
21589;SDS011;10957;50.968;6.828;2023-02-13T09:53:36;4.82;;;4.60;;
21589;SDS011;10957;50.968;6.828;2023-02-13T09:58:46;4.47;;;4.28;;
21589;SDS011;10957;50.968;6.828;2023-02-13T10:04:24;5.05;;;4.82;;
21589;SDS011;10957;50.968;6.828;2023-02-13T10:09:43;5.18;;;4.88;;
21589;SDS011;10957;50.968;6.828;2023-02-13T10:20:51;4.15;;;3.95;;
21589;SDS011;10957;50.968;6.828;2023-02-13T10:31:42;4.40;;;4.20;;
21589;SDS011;10957;50.968;6.828;2023-02-13T10:36:47;4.60;;;4.40;;
21589;SDS011;10957;50.968;6.828;2023-02-13T10:41:57;4.55;;;4.35;;
21589;SDS011;10957;50.968;6.828;2023-02-13T10:58:49;4.82;;;4.63;;
21589;SDS011;10957;50.968;6.828;2023-02-13T11:04:13;4.90;;;4.70;;
21589;SDS011;10957;50.968;6.828;2023-02-13T11:09:18;5.07;;;4.78;;
21589;SDS011;10957;50.968;6.828;2023-02-13T11:14:24;5.15;;;4.95;;
21589;SDS011;10957;50.968;6.828;2023-02-13T11:19:36;5.20;;;5.00;;
21589;SDS011;10957;50.968;6.828;2023-02-13T11:24:50;5.28;;;5.07;;
21589;SDS011;10957;50.968;6.828;2023-02-13T11:29:54;5.70;;;5.40;;
21589;SDS011;10957;50.968;6.828;2023-02-13T11:34:59;5.35;;;5.15;;
21589;SDS011;10957;50.968;6.828;2023-02-13T11:40:30;5.80;;;5.50;;
21589;SDS011;10957;50.968;6.828;2023-02-13T11:45:31;5.90;;;5.60;;
21589;SDS011;10957;50.968;6.828;2023-02-13T11:50:33;5.93;;;5.63;;
21589;SDS011;10957;50.968;6.828;2023-02-13T11:55:38;5.90;;;5.60;;
21589;SDS011;10957;50.968;6.828;2023-02-13T12:00:42;6.00;;;5.70;;
21589;SDS011;10957;50.968;6.828;2023-02-13T12:05:54;5.72;;;5.43;;
21589;SDS011;10957;50.968;6.828;2023-02-13T12:11:15;6.10;;;5.80;;
21589;SDS011;10957;50.968;6.828;2023-02-13T12:22:06;6.28;;;5.97;;
21589;SDS011;10957;50.968;6.828;2023-02-13T12:27:28;5.65;;;5.45;;
21589;SDS011;10957;50.968;6.828;2023-02-13T12:32:51;5.30;;;5.10;;
21589;SDS011;10957;50.968;6.828;2023-02-13T12:38:40;6.22;;;5.93;;
21589;SDS011;10957;50.968;6.828;2023-02-13T12:54:53;6.03;;;5.72;;
21589;SDS011;10957;50.968;6.828;2023-02-13T13:00:27;5.70;;;5.50;;
21589;SDS011;10957;50.968;6.828;2023-02-13T13:11:25;7.25;;;6.85;;
21589;SDS011;10957;50.968;6.828;2023-02-13T13:26:59;6.30;;;6.00;;
21589;SDS011;10957;50.968;6.828;2023-02-13T13:32:04;5.97;;;5.68;;
21589;SDS011;10957;50.968;6.828;2023-02-13T13:37:10;6.07;;;5.78;;
21589;SDS011;10957;50.968;6.828;2023-02-13T13:42:33;5.60;;;5.40;;
21589;SDS011;10957;50.968;6.828;2023-02-13T13:48:08;6.40;;;6.10;;
21589;SDS011;10957;50.968;6.828;2023-02-13T13:53:32;5.90;;;5.60;;
21589;SDS011;10957;50.968;6.828;2023-02-13T14:03:44;6.25;;;5.95;;
21589;SDS011;10957;50.968;6.828;2023-02-13T14:13:49;5.50;;;5.30;;
21589;SDS011;10957;50.968;6.828;2023-02-13T14:18:51;5.70;;;5.40;;
21589;SDS011;10957;50.968;6.828;2023-02-13T14:23:52;6.07;;;5.78;;
21589;SDS011;10957;50.968;6.828;2023-02-13T14:29:13;5.43;;;5.22;;
21589;SDS011;10957;50.968;6.828;2023-02-13T14:34:23;5.28;;;5.07;;
21589;SDS011;10957;50.968;6.828;2023-02-13T14:39:30;5.95;;;5.65;;
21589;SDS011;10957;50.968;6.828;2023-02-13T14:49:54;5.20;;;5.00;;
21589;SDS011;10957;50.968;6.828;2023-02-13T14:55:03;5.03;;;4.72;;
21589;SDS011;10957;50.968;6.828;2023-02-13T15:00:23;5.25;;;5.03;;
21589;SDS011;10957;50.968;6.828;2023-02-13T15:05:30;4.80;;;4.60;;
21589;SDS011;10957;50.968;6.828;2023-02-13T15:15:54;4.50;;;4.30;;
21589;SDS011;10957;50.968;6.828;2023-02-13T15:20:58;5.28;;;5.00;;
21589;SDS011;10957;50.968;6.828;2023-02-13T15:26:01;5.85;;;5.57;;
21589;SDS011;10957;50.968;6.828;2023-02-13T15:31:28;8.52;;;8.07;;
21589;SDS011;10957;50.968;6.828;2023-02-13T15:36:34;5.20;;;5.00;;
21589;SDS011;10957;50.968;6.828;2023-02-13T15:41:40;5.60;;;5.40;;
21589;SDS011;10957;50.968;6.828;2023-02-13T15:46:48;5.63;;;5.35;;
21589;SDS011;10957;50.968;6.828;2023-02-13T15:52:05;4.68;;;4.47;;
21589;SDS011;10957;50.968;6.828;2023-02-13T15:57:12;5.07;;;4.88;;
21589;SDS011;10957;50.968;6.828;2023-02-13T16:02:15;4.93;;;4.72;;
21589;SDS011;10957;50.968;6.828;2023-02-13T16:07:20;5.00;;;4.80;;
21589;SDS011;10957;50.968;6.828;2023-02-13T16:12:23;4.90;;;4.70;;
21589;SDS011;10957;50.968;6.828;2023-02-13T16:17:29;5.00;;;4.80;;
21589;SDS011;10957;50.968;6.828;2023-02-13T16:27:41;5.30;;;5.10;;
21589;SDS011;10957;50.968;6.828;2023-02-13T16:32:45;5.40;;;5.20;;
21589;SDS011;10957;50.968;6.828;2023-02-13T16:37:50;5.43;;;5.18;;
21589;SDS011;10957;50.968;6.828;2023-02-13T16:48:35;6.03;;;5.70;;
21589;SDS011;10957;50.968;6.828;2023-02-13T16:53:36;6.55;;;6.25;;
21589;SDS011;10957;50.968;6.828;2023-02-13T16:58:39;6.75;;;6.35;;
21589;SDS011;10957;50.968;6.828;2023-02-13T17:03:40;6.38;;;6.07;;
21589;SDS011;10957;50.968;6.828;2023-02-13T17:08:41;6.30;;;6.00;;
21589;SDS011;10957;50.968;6.828;2023-02-13T17:13:43;6.13;;;5.82;;
21589;SDS011;10957;50.968;6.828;2023-02-13T17:18:44;6.28;;;5.70;;
21589;SDS011;10957;50.968;6.828;2023-02-13T17:23:45;5.75;;;5.50;;
21589;SDS011;10957;50.968;6.828;2023-02-13T17:28:47;5.70;;;5.50;;
21589;SDS011;10957;50.968;6.828;2023-02-13T17:33:48;5.50;;;5.30;;
21589;SDS011;10957;50.968;6.828;2023-02-13T17:38:49;5.85;;;5.55;;
21589;SDS011;10957;50.968;6.828;2023-02-13T17:43:51;5.20;;;5.00;;
21589;SDS011;10957;50.968;6.828;2023-02-13T17:48:52;5.15;;;4.95;;
21589;SDS011;10957;50.968;6.828;2023-02-13T17:53:53;5.20;;;5.00;;
21589;SDS011;10957;50.968;6.828;2023-02-13T17:58:55;5.28;;;5.07;;
21589;SDS011;10957;50.968;6.828;2023-02-13T18:03:57;5.60;;;5.40;;
21589;SDS011;10957;50.968;6.828;2023-02-13T18:08:58;5.40;;;5.20;;
21589;SDS011;10957;50.968;6.828;2023-02-13T18:13:59;5.80;;;5.50;;
21589;SDS011;10957;50.968;6.828;2023-02-13T18:19:01;5.53;;;5.32;;
21589;SDS011;10957;50.968;6.828;2023-02-13T18:24:03;5.88;;;5.50;;
21589;SDS011;10957;50.968;6.828;2023-02-13T18:29:05;5.53;;;5.32;;
21589;SDS011;10957;50.968;6.828;2023-02-13T18:34:06;5.00;;;4.80;;
21589;SDS011;10957;50.968;6.828;2023-02-13T18:39:07;6.07;;;5.78;;
21589;SDS011;10957;50.968;6.828;2023-02-13T18:44:09;6.35;;;5.95;;
21589;SDS011;10957;50.968;6.828;2023-02-13T18:49:10;5.50;;;5.30;;
21589;SDS011;10957;50.968;6.828;2023-02-13T18:54:12;6.07;;;5.78;;
21589;SDS011;10957;50.968;6.828;2023-02-13T18:59:13;5.80;;;5.50;;
21589;SDS011;10957;50.968;6.828;2023-02-13T19:04:14;4.90;;;4.70;;
21589;SDS011;10957;50.968;6.828;2023-02-13T19:09:16;4.90;;;4.70;;
21589;SDS011;10957;50.968;6.828;2023-02-13T19:14:17;4.80;;;4.60;;
21589;SDS011;10957;50.968;6.828;2023-02-13T19:19:18;5.15;;;4.95;;
21589;SDS011;10957;50.968;6.828;2023-02-13T19:24:20;5.72;;;5.43;;
21589;SDS011;10957;50.968;6.828;2023-02-13T19:29:21;4.90;;;4.70;;
21589;SDS011;10957;50.968;6.828;2023-02-13T19:34:22;5.22;;;4.93;;
21589;SDS011;10957;50.968;6.828;2023-02-13T19:39:23;4.70;;;4.50;;
21589;SDS011;10957;50.968;6.828;2023-02-13T19:44:24;5.28;;;5.00;;
21589;SDS011;10957;50.968;6.828;2023-02-13T19:49:25;4.88;;;4.68;;
21589;SDS011;10957;50.968;6.828;2023-02-13T19:54:27;5.10;;;4.90;;
21589;SDS011;10957;50.968;6.828;2023-02-13T19:59:28;5.13;;;4.82;;
21589;SDS011;10957;50.968;6.828;2023-02-13T20:04:30;4.90;;;4.60;;
21589;SDS011;10957;50.968;6.828;2023-02-13T20:09:32;5.10;;;4.90;;
21589;SDS011;10957;50.968;6.828;2023-02-13T20:14:34;4.85;;;4.65;;
21589;SDS011;10957;50.968;6.828;2023-02-13T20:19:36;4.93;;;4.72;;
21589;SDS011;10957;50.968;6.828;2023-02-13T20:24:38;5.05;;;4.82;;
21589;SDS011;10957;50.968;6.828;2023-02-13T20:29:40;4.80;;;4.60;;
21589;SDS011;10957;50.968;6.828;2023-02-13T20:34:41;5.55;;;5.25;;
21589;SDS011;10957;50.968;6.828;2023-02-13T20:39:42;4.47;;;4.28;;
21589;SDS011;10957;50.968;6.828;2023-02-13T20:44:43;4.50;;;4.30;;
21589;SDS011;10957;50.968;6.828;2023-02-13T20:49:46;4.95;;;4.75;;
21589;SDS011;10957;50.968;6.828;2023-02-13T20:54:47;4.80;;;4.60;;
21589;SDS011;10957;50.968;6.828;2023-02-13T20:59:48;4.95;;;4.75;;
21589;SDS011;10957;50.968;6.828;2023-02-13T21:04:50;5.25;;;5.05;;
21589;SDS011;10957;50.968;6.828;2023-02-13T21:09:52;4.80;;;4.60;;
21589;SDS011;10957;50.968;6.828;2023-02-13T21:14:54;4.60;;;4.40;;
21589;SDS011;10957;50.968;6.828;2023-02-13T21:19:55;5.00;;;4.80;;
21589;SDS011;10957;50.968;6.828;2023-02-13T21:24:56;4.63;;;4.43;;
21589;SDS011;10957;50.968;6.828;2023-02-13T21:29:57;4.70;;;4.50;;
21589;SDS011;10957;50.968;6.828;2023-02-13T21:34:58;4.70;;;4.50;;
21589;SDS011;10957;50.968;6.828;2023-02-13T21:39:59;4.20;;;4.00;;
21589;SDS011;10957;50.968;6.828;2023-02-13T21:45:01;5.00;;;4.80;;
21589;SDS011;10957;50.968;6.828;2023-02-13T21:50:05;4.63;;;4.43;;
21589;SDS011;10957;50.968;6.828;2023-02-13T21:55:07;4.20;;;4.00;;
21589;SDS011;10957;50.968;6.828;2023-02-13T22:00:09;4.25;;;4.05;;
21589;SDS011;10957;50.968;6.828;2023-02-13T22:05:13;4.30;;;4.10;;
21589;SDS011;10957;50.968;6.828;2023-02-13T22:10:14;3.70;;;3.60;;
21589;SDS011;10957;50.968;6.828;2023-02-13T22:15:15;3.57;;;3.47;;
21589;SDS011;10957;50.968;6.828;2023-02-13T22:20:17;4.13;;;3.92;;
21589;SDS011;10957;50.968;6.828;2023-02-13T22:25:19;3.50;;;3.40;;
21589;SDS011;10957;50.968;6.828;2023-02-13T22:30:20;3.20;;;3.10;;
21589;SDS011;10957;50.968;6.828;2023-02-13T22:35:22;3.30;;;3.20;;
21589;SDS011;10957;50.968;6.828;2023-02-13T22:40:23;3.30;;;3.20;;
21589;SDS011;10957;50.968;6.828;2023-02-13T22:45:24;3.35;;;3.25;;
21589;SDS011;10957;50.968;6.828;2023-02-13T22:50:25;3.30;;;3.20;;
21589;SDS011;10957;50.968;6.828;2023-02-13T22:55:26;3.22;;;3.13;;
21589;SDS011;10957;50.968;6.828;2023-02-13T23:00:27;4.10;;;3.90;;
21589;SDS011;10957;50.968;6.828;2023-02-13T23:05:29;3.75;;;3.60;;
21589;SDS011;10957;50.968;6.828;2023-02-13T23:10:30;3.25;;;3.15;;
21589;SDS011;10957;50.968;6.828;2023-02-13T23:15:32;3.30;;;3.20;;
21589;SDS011;10957;50.968;6.828;2023-02-13T23:20:34;3.50;;;3.40;;
21589;SDS011;10957;50.968;6.828;2023-02-13T23:25:36;3.70;;;3.60;;
21589;SDS011;10957;50.968;6.828;2023-02-13T23:30:38;3.50;;;3.40;;
21589;SDS011;10957;50.968;6.828;2023-02-13T23:35:39;3.90;;;3.80;;
21589;SDS011;10957;50.968;6.828;2023-02-13T23:40:40;3.60;;;3.50;;
21589;SDS011;10957;50.968;6.828;2023-02-13T23:45:42;3.80;;;3.70;;
21589;SDS011;10957;50.968;6.828;2023-02-13T23:50:43;3.50;;;3.40;;
21589;SDS011;10957;50.968;6.828;2023-02-13T23:55:44;4.18;;;3.92;;
